Airport ID:1G3
Update Time (UTC):30/10/2020 05:02
Wind Speed (Knots):5
Wind Direction (Magnetic):360
Temperature (°C):7
Dew Point (°C):7
Humidity (%):97
Altimeter (inHg):29.79
Density Altitude (Feet):
Visibility:10+
Clouds (Hundreds of feet):***
Present Weather:
METAR:METAR 1G3 300500Z AUTO 34006KT 10SM 07/07 A2979 RMK A01

The data displayed is for advisory purposes only and is not to be used for flight planning or operations.